createdAt,value
2023-04-06T00:01:03.075Z,99.90
2023-04-06T00:03:29.816Z,99.90
2023-04-06T00:05:56.687Z,99.90
2023-04-06T00:08:24.490Z,99.90
2023-04-06T00:10:51.154Z,99.90
2023-04-06T00:13:17.890Z,99.90
2023-04-06T00:15:44.642Z,99.90
2023-04-06T00:18:11.479Z,99.90
2023-04-06T00:20:38.197Z,99.90
2023-04-06T00:23:05.553Z,99.90
2023-04-06T00:42:43.470Z,99.90
2023-04-06T00:45:11.003Z,99.90
2023-04-06T06:14:09.668Z,99.90
2023-04-06T06:16:36.641Z,99.90
2023-04-06T06:19:03.304Z,99.90
2023-04-06T06:21:29.997Z,99.90
2023-04-06T06:36:13.503Z,99.90
2023-04-06T06:58:20.408Z,99.90
2023-04-06T08:24:39.743Z,99.90
2023-04-06T08:27:06.480Z,93.30
2023-04-06T08:29:33.114Z,90.20
2023-04-06T08:31:59.982Z,90.00
2023-04-06T08:34:26.697Z,89.20
2023-04-06T08:36:53.333Z,87.10
2023-04-06T08:39:26.166Z,84.70
2023-04-06T08:41:53.861Z,86.10
2023-04-06T08:44:20.839Z,85.10
2023-04-06T08:46:47.621Z,85.70
2023-04-06T08:49:16.997Z,78.90
2023-04-06T08:51:43.865Z,74.40
2023-04-06T08:54:10.955Z,76.50
2023-04-06T08:56:41.052Z,76.80
2023-04-06T08:59:08.850Z,73.40
2023-04-06T09:01:42.015Z,72.30
2023-04-06T09:04:12.392Z,73.00
2023-04-06T09:11:49.826Z,72.70
2023-04-06T09:14:17.574Z,68.60
2023-04-06T09:16:46.208Z,69.40
2023-04-06T09:19:13.584Z,68.10
2023-04-06T09:21:41.073Z,67.10
2023-04-06T09:24:08.990Z,66.30
2023-04-06T09:26:48.825Z,65.40
2023-04-06T09:29:27.508Z,60.70
2023-04-06T09:32:06.375Z,61.80
2023-04-06T09:34:33.803Z,60.90
2023-04-06T09:37:00.712Z,59.20
2023-04-06T09:39:27.482Z,60.30
2023-04-06T09:41:55.257Z,61.70
2023-04-06T09:44:22.195Z,61.50
2023-04-06T09:46:58.740Z,60.00
2023-04-06T09:49:28.532Z,58.60
2023-04-06T09:51:59.367Z,58.20
2023-04-06T09:54:30.475Z,59.10
2023-04-06T09:57:25.731Z,58.80
2023-04-06T10:00:10.290Z,59.50
2023-04-06T10:03:09.634Z,60.00
2023-04-06T10:05:59.665Z,58.20
2023-04-06T10:08:31.814Z,58.20
2023-04-06T10:11:00.172Z,57.80
2023-04-06T10:13:26.921Z,57.50
2023-04-06T10:15:53.985Z,57.50
2023-04-06T10:18:21.635Z,57.00
2023-04-06T10:20:55.879Z,58.00
2023-04-06T10:30:57.277Z,57.20
2023-04-06T10:33:23.971Z,54.70
2023-04-06T10:35:50.796Z,55.10
2023-04-06T10:38:21.943Z,55.30
2023-04-06T11:55:53.593Z,54.60
2023-04-06T11:58:20.323Z,46.80
2023-04-06T12:10:36.533Z,47.30
2023-04-06T12:13:03.371Z,42.50
2023-04-06T12:15:30.199Z,42.90
2023-04-06T12:17:56.911Z,43.70
2023-04-06T12:20:26.954Z,43.20
2023-04-06T12:22:54.050Z,41.60
2023-04-06T12:25:20.900Z,41.40
2023-04-06T12:27:48.083Z,42.30
2023-04-06T13:09:34.297Z,42.90
2023-04-06T13:12:01.893Z,42.20
2023-04-06T13:14:28.497Z,43.60
2023-04-06T13:16:55.825Z,42.70
2023-04-06T13:19:22.617Z,42.60
2023-04-06T13:21:49.453Z,40.80
2023-04-06T13:24:17.227Z,40.50
2023-04-06T13:26:44.518Z,41.00
2023-04-06T13:29:11.342Z,40.60
2023-04-06T13:31:38.929Z,41.10
2023-04-06T13:34:06.202Z,41.30
2023-04-06T13:36:33.321Z,43.00
2023-04-06T13:39:00.244Z,39.30
2023-04-06T13:41:27.506Z,38.10
2023-04-06T13:46:21.585Z,37.80
2023-04-06T13:48:48.934Z,36.50
2023-04-06T13:51:16.278Z,40.30
2023-04-06T13:53:43.039Z,38.60
2023-04-06T13:56:09.704Z,38.60
2023-04-06T13:58:37.229Z,38.60
2023-04-06T14:01:10.503Z,37.00
2023-04-06T14:03:38.158Z,36.20
2023-04-06T14:06:29.619Z,35.70
2023-04-06T14:08:57.987Z,39.60
2023-04-06T14:13:52.039Z,43.70
2023-04-06T14:16:20.626Z,35.00
2023-04-06T14:18:47.514Z,34.30
2023-04-06T14:21:14.306Z,34.40
2023-04-06T14:23:41.319Z,35.80
2023-04-06T14:26:09.532Z,36.80
2023-04-06T14:28:37.345Z,38.20
2023-04-06T14:31:16.128Z,36.80
2023-04-06T14:33:43.617Z,37.40
2023-04-06T14:36:10.675Z,35.40
2023-04-06T14:38:37.458Z,36.70
2023-04-06T14:41:04.130Z,35.60
2023-04-06T14:48:29.594Z,34.60
2023-04-06T17:16:20.839Z,28.30
2023-04-06T17:18:47.564Z,35.70
2023-04-06T17:21:14.489Z,34.50
2023-04-06T17:23:41.482Z,34.50
2023-04-06T17:26:08.471Z,36.60
2023-04-06T17:28:35.590Z,37.80
2023-04-06T17:31:02.649Z,38.30
2023-04-06T17:38:26.388Z,39.50
2023-04-06T17:40:53.016Z,44.00
2023-04-06T17:43:19.741Z,46.10
2023-04-06T17:48:17.944Z,44.30
2023-04-06T17:50:45.357Z,41.30
2023-04-06T17:53:12.228Z,47.10
2023-04-06T17:55:38.971Z,43.60
2023-04-06T17:58:05.945Z,45.70
2023-04-06T18:00:32.664Z,45.00
2023-04-06T18:02:59.384Z,46.60
2023-04-06T18:05:28.994Z,45.70
2023-04-06T18:07:55.823Z,51.40
2023-04-06T18:10:23.106Z,49.10
2023-04-06T18:12:49.938Z,50.10
2023-04-06T18:15:17.047Z,52.70
2023-04-06T18:17:45.460Z,52.80
2023-04-06T18:20:14.173Z,56.10
2023-04-06T18:22:44.723Z,56.70
2023-04-06T18:25:12.801Z,56.50
2023-04-06T18:27:39.621Z,56.70
2023-04-06T18:30:06.810Z,60.60
2023-04-06T18:32:33.569Z,65.00
2023-04-06T18:35:00.467Z,84.70
2023-04-06T18:37:27.131Z,82.90
2023-04-06T18:39:54.558Z,73.70
2023-04-06T18:42:21.334Z,75.60
2023-04-06T18:44:48.682Z,80.00
2023-04-06T18:47:15.669Z,81.80
2023-04-06T18:54:37.032Z,79.10
2023-04-06T18:57:04.744Z,81.50
2023-04-06T18:59:31.660Z,82.20
2023-04-06T19:01:59.278Z,84.00
2023-04-06T19:04:26.994Z,86.80
2023-04-06T19:06:55.272Z,88.40
2023-04-06T19:09:21.895Z,89.10
2023-04-06T19:43:54.247Z,90.90
2023-04-06T19:46:21.629Z,99.90
2023-04-06T19:48:48.386Z,99.90
2023-04-06T19:51:15.046Z,99.90
2023-04-06T19:53:41.742Z,99.90
2023-04-06T19:56:10.053Z,99.90
2023-04-06T19:58:38.045Z,99.90
2023-04-06T20:01:05.057Z,99.90
2023-04-06T20:03:32.370Z,99.90
2023-04-06T20:05:59.421Z,99.90
2023-04-06T20:08:26.093Z,99.90
2023-04-06T20:10:52.750Z,99.90
2023-04-06T20:13:20.834Z,99.90
2023-04-06T20:15:47.604Z,99.90
2023-04-06T20:18:14.216Z,99.90
2023-04-06T20:20:40.983Z,99.90
2023-04-06T20:23:07.678Z,99.90
2023-04-06T20:25:34.346Z,99.90
2023-04-06T20:28:01.059Z,99.90
2023-04-06T20:30:27.788Z,99.90
2023-04-06T20:32:54.649Z,99.90
2023-04-06T20:35:21.435Z,99.90
2023-04-06T20:37:48.259Z,99.90
2023-04-06T20:40:14.956Z,99.90
2023-04-06T20:42:41.827Z,99.90
2023-04-06T20:45:09.286Z,99.90
2023-04-06T20:47:35.894Z,99.90
2023-04-06T20:50:02.708Z,99.90
2023-04-06T20:52:29.321Z,99.90
2023-04-06T20:54:56.354Z,99.90
2023-04-06T20:57:24.215Z,99.90
2023-04-06T20:59:50.944Z,99.90
2023-04-06T21:02:17.977Z,99.90
2023-04-06T21:04:45.250Z,99.90
2023-04-06T21:07:12.130Z,99.90
2023-04-06T21:09:40.392Z,99.90
2023-04-06T21:12:07.904Z,99.90
2023-04-06T21:14:34.901Z,99.90
2023-04-06T21:17:01.674Z,99.90
2023-04-06T21:19:28.308Z,99.90
2023-04-06T21:21:54.993Z,99.90
2023-04-06T21:24:21.658Z,99.90
2023-04-06T21:26:48.297Z,99.90
2023-04-06T21:29:14.890Z,99.90
2023-04-06T21:31:42.370Z,99.90
2023-04-06T21:34:10.859Z,99.90
2023-04-06T21:36:38.261Z,99.90
2023-04-06T21:39:06.092Z,99.90
2023-04-06T21:41:33.724Z,99.90
2023-04-06T21:44:00.604Z,99.90
2023-04-06T21:46:27.288Z,99.90
2023-04-06T21:48:53.932Z,99.90
2023-04-06T21:51:22.186Z,99.90
2023-04-06T21:53:49.361Z,99.90
2023-04-06T21:56:22.938Z,99.90
2023-04-06T21:58:50.512Z,99.90
2023-04-06T22:01:17.536Z,99.90
2023-04-06T22:03:46.110Z,99.90
2023-04-06T22:06:13.137Z,99.90
2023-04-06T22:08:39.822Z,99.90
2023-04-06T22:11:11.642Z,99.90
2023-04-06T22:13:38.946Z,99.90
2023-04-06T22:16:06.360Z,99.90
2023-04-06T22:18:33.513Z,99.90
2023-04-06T22:21:00.989Z,99.90
2023-04-06T22:23:27.683Z,99.90
2023-04-06T22:25:54.345Z,99.90
2023-04-06T22:28:20.990Z,99.90
2023-04-06T22:30:48.124Z,99.90
2023-04-06T22:33:15.065Z,99.90
2023-04-06T22:35:41.861Z,99.90
2023-04-06T22:38:08.598Z,99.90
2023-04-06T22:40:35.509Z,99.90
2023-04-06T22:43:02.213Z,99.90
2023-04-06T22:45:28.918Z,99.90
2023-04-06T22:47:55.681Z,99.90
2023-04-06T22:50:22.478Z,99.90
2023-04-06T22:52:49.249Z,99.90
2023-04-06T22:55:16.217Z,99.90
2023-04-06T22:57:42.817Z,99.90
2023-04-06T23:00:09.980Z,99.90
2023-04-06T23:02:37.062Z,99.90
2023-04-06T23:05:03.812Z,99.90
2023-04-06T23:07:32.481Z,99.90
2023-04-06T23:09:59.389Z,99.90
2023-04-06T23:12:26.288Z,99.90
2023-04-06T23:14:53.084Z,99.90
2023-04-06T23:17:19.726Z,99.90
2023-04-06T23:19:46.332Z,99.90
2023-04-06T23:22:13.156Z,99.90
2023-04-06T23:24:39.761Z,99.90
2023-04-06T23:27:06.479Z,99.90
2023-04-06T23:56:31.654Z,99.90
2023-04-06T23:58:58.426Z,99.90
